Time;durP1;ratioP1;P1;durP2;ratioP2;P2;SDS_P1;SDS_P2;PMS_P1;PMS_P2;Temp;Humidity;BMP_temperature;BMP_pressure;BME280_temperature;BME280_humidity;BME280_pressure;Samples;Min_cycle;Max_cycle;Signal;HPM_P1;HPM_P2
2022/10/17 00:01:48;;;;;;;22.73;3.63;;;;;;;;;;5034121;28;20025;-64
2022/10/17 00:04:14;;;;;;;22.52;2.75;;;;;;;;;;5046620;28;20033;-64
2022/10/17 00:06:40;;;;;;;15.68;3.63;;;;;;;;;;5054034;28;20029;-64
2022/10/17 00:09:08;;;;;;;15.20;2.67;;;;;;;;;;5041793;28;20033;-64
2022/10/17 00:11:34;;;;;;;25.10;3.50;;;;;;;;;;5033070;28;20163;-64
2022/10/17 00:14:01;;;;;;;14.13;3.95;;;;;;;;;;5033927;28;20117;-64
2022/10/17 00:16:32;;;;;;;17.15;3.08;;;;;;;;;;5033870;28;20398;-64
2022/10/17 00:18:59;;;;;;;16.83;3.28;;;;;;;;;;5033980;28;20041;-64
2022/10/17 00:21:26;;;;;;;18.25;3.50;;;;;;;;;;5033895;28;20036;-64
2022/10/17 00:23:52;;;;;;;18.90;3.33;;;;;;;;;;5033849;28;20029;-64
2022/10/17 00:26:19;;;;;;;22.60;3.65;;;;;;;;;;5033692;28;20025;-64
2022/10/17 00:28:49;;;;;;;15.65;2.78;;;;;;;;;;5032669;28;20384;-63
2022/10/17 00:31:17;;;;;;;18.15;3.58;;;;;;;;;;5033590;28;20026;-63
2022/10/17 00:33:43;;;;;;;19.08;3.92;;;;;;;;;;5033582;28;20032;-63
2022/10/17 00:36:12;;;;;;;16.25;2.67;;;;;;;;;;5032301;28;20033;-63
2022/10/17 00:38:39;;;;;;;15.95;2.47;;;;;;;;;;5032829;28;20072;-63
2022/10/17 00:41:05;;;;;;;14.60;2.83;;;;;;;;;;5031883;28;20025;-63
2022/10/17 00:43:50;;;;;;;27.40;3.03;;;;;;;;;;5033081;28;20021;-63
2022/10/17 00:46:17;;;;;;;16.13;3.22;;;;;;;;;;5031289;28;20509;-63
2022/10/17 00:48:43;;;;;;;24.23;3.03;;;;;;;;;;5032874;28;20163;-63
2022/10/17 00:51:09;;;;;;;21.33;4.07;;;;;;;;;;5033164;28;20359;-63
2022/10/17 00:53:36;;;;;;;19.00;3.13;;;;;;;;;;5032968;28;20047;-63
2022/10/17 00:56:03;;;;;;;16.30;3.17;;;;;;;;;;5033303;28;20488;-63
2022/10/17 00:58:29;;;;;;;20.10;3.05;;;;;;;;;;5031133;28;20029;-63
2022/10/17 01:00:55;;;;;;;18.25;3.55;;;;;;;;;;5032702;28;20017;-63
2022/10/17 01:03:21;;;;;;;21.92;4.00;;;;;;;;;;5036938;28;20111;-63
2022/10/17 01:05:47;;;;;;;16.42;3.10;;;;;;;;;;5040054;28;20032;-63
2022/10/17 01:08:13;;;;;;;20.85;2.95;;;;;;;;;;5031757;28;20021;-63
2022/10/17 01:10:43;;;;;;;18.13;2.95;;;;;;;;;;5031342;28;20095;-63
2022/10/17 01:13:12;;;;;;;21.55;3.92;;;;;;;;;;5031473;28;20428;-63
2022/10/17 01:15:56;;;;;;;15.13;3.47;;;;;;;;;;5032260;28;20022;-63
2022/10/17 01:18:43;;;;;;;17.73;2.70;;;;;;;;;;5032768;28;20108;-63
2022/10/17 01:21:28;;;;;;;17.00;3.30;;;;;;;;;;5031722;28;20112;-63
2022/10/17 01:24:09;;;;;;;16.17;3.50;;;;;;;;;;5030886;28;20103;-63
2022/10/17 01:26:35;;;;;;;15.57;3.70;;;;;;;;;;5031267;28;20072;-62
2022/10/17 01:29:01;;;;;;;24.08;3.50;;;;;;;;;;5032951;28;20397;-62
2022/10/17 01:31:44;;;;;;;15.48;2.83;;;;;;;;;;5030689;28;20037;-62
2022/10/17 01:34:29;;;;;;;17.08;3.35;;;;;;;;;;5031390;28;20025;-62
2022/10/17 01:36:58;;;;;;;20.77;3.38;;;;;;;;;;5031431;28;20044;-62
2022/10/17 01:39:24;;;;;;;18.73;2.50;;;;;;;;;;5032135;28;20497;-61
2022/10/17 01:41:58;;;;;;;16.42;3.20;;;;;;;;;;5032361;28;20041;-62
2022/10/17 01:44:43;;;;;;;16.40;2.80;;;;;;;;;;5031658;28;20079;-62
2022/10/17 01:47:11;;;;;;;16.83;2.80;;;;;;;;;;5032397;28;20067;-62
2022/10/17 01:49:38;;;;;;;23.10;3.08;;;;;;;;;;5031096;28;20335;-62
2022/10/17 01:52:07;;;;;;;14.20;3.20;;;;;;;;;;5031522;28;20026;-61
2022/10/17 01:54:39;;;;;;;19.38;3.63;;;;;;;;;;5032419;28;20037;-62
2022/10/17 01:57:07;;;;;;;15.68;3.15;;;;;;;;;;5031370;28;20090;-62
2022/10/17 01:59:39;;;;;;;17.25;2.40;;;;;;;;;;5030403;28;20029;-62
2022/10/17 02:02:06;;;;;;;9.20;2.00;;;;;;;;;;5031182;28;20036;-62
2022/10/17 02:04:34;;;;;;;11.15;1.60;;;;;;;;;;5030977;28;20041;-63
2022/10/17 02:07:07;;;;;;;14.43;2.60;;;;;;;;;;5032548;28;20454;-62
2022/10/17 02:09:34;;;;;;;13.68;2.63;;;;;;;;;;5031106;28;20112;-62
2022/10/17 02:12:01;;;;;;;9.80;1.45;;;;;;;;;;5030548;28;20030;-62
2022/10/17 02:14:47;;;;;;;5.18;1.58;;;;;;;;;;5030423;28;20053;-62
2022/10/17 02:17:19;;;;;;;11.93;1.92;;;;;;;;;;5032380;28;20459;-62
2022/10/17 02:20:04;;;;;;;4.80;1.17;;;;;;;;;;5030905;28;20033;-62
2022/10/17 02:22:33;;;;;;;11.23;1.63;;;;;;;;;;5030920;28;20045;-61
2022/10/17 02:25:02;;;;;;;5.75;1.10;;;;;;;;;;5015152;28;20437;-61
2022/10/17 02:27:31;;;;;;;8.65;2.53;;;;;;;;;;5032297;28;20029;-61
2022/10/17 02:30:14;;;;;;;7.20;1.20;;;;;;;;;;5030752;28;20468;-62
2022/10/17 02:32:49;;;;;;;8.38;1.70;;;;;;;;;;5030186;28;20034;-61
2022/10/17 02:35:15;;;;;;;5.47;1.17;;;;;;;;;;5032610;28;20036;-61
2022/10/17 02:37:43;;;;;;;12.98;1.50;;;;;;;;;;5034337;28;20168;-62
2022/10/17 02:40:10;;;;;;;4.72;1.10;;;;;;;;;;5034948;28;20025;-62
2022/10/17 02:42:38;;;;;;;11.05;1.65;;;;;;;;;;5033159;28;20113;-62
2022/10/17 02:45:05;;;;;;;4.70;1.13;;;;;;;;;;5035415;28;20098;-62
2022/10/17 02:47:37;;;;;;;6.55;1.20;;;;;;;;;;5034154;28;20038;-62
2022/10/17 02:50:05;;;;;;;10.30;1.40;;;;;;;;;;5034332;28;20037;-62
2022/10/17 02:52:36;;;;;;;8.43;1.67;;;;;;;;;;5034333;28;20052;-62
2022/10/17 02:55:30;;;;;;;7.70;1.23;;;;;;;;;;5034250;28;20080;-62
2022/10/17 02:57:59;;;;;;;8.38;1.30;;;;;;;;;;5032813;28;20034;-62
2022/10/17 03:00:26;;;;;;;7.22;1.15;;;;;;;;;;5034238;28;20064;-63
2022/10/17 03:02:53;;;;;;;5.05;1.38;;;;;;;;;;5033895;28;20041;-62
2022/10/17 03:05:20;;;;;;;7.20;1.00;;;;;;;;;;5035522;28;20059;-62
2022/10/17 03:07:47;;;;;;;7.78;1.00;;;;;;;;;;5033826;28;20038;-62
2022/10/17 03:10:13;;;;;;;8.20;1.05;;;;;;;;;;5033727;28;20115;-62
2022/10/17 03:12:39;;;;;;;2.70;0.85;;;;;;;;;;5033442;28;20048;-62
2022/10/17 03:15:06;;;;;;;6.75;0.80;;;;;;;;;;5033932;28;20413;-62
2022/10/17 03:17:33;;;;;;;5.43;0.88;;;;;;;;;;5033804;28;20044;-62
2022/10/17 03:19:59;;;;;;;7.03;1.20;;;;;;;;;;5033590;28;20075;-62
2022/10/17 03:22:25;;;;;;;4.90;1.20;;;;;;;;;;5033454;28;20386;-61
2022/10/17 03:24:51;;;;;;;4.93;1.05;;;;;;;;;;5033688;28;20037;-62
2022/10/17 03:27:17;;;;;;;5.00;1.70;;;;;;;;;;5034601;28;20057;-62
2022/10/17 03:29:44;;;;;;;7.78;1.02;;;;;;;;;;5033213;28;20099;-62
2022/10/17 03:32:12;;;;;;;7.97;1.15;;;;;;;;;;5033446;28;20064;-62
2022/10/17 03:34:38;;;;;;;4.20;1.33;;;;;;;;;;5033096;28;20033;-62
2022/10/17 03:37:05;;;;;;;9.23;1.17;;;;;;;;;;5033367;28;20425;-62
2022/10/17 03:39:33;;;;;;;5.85;1.00;;;;;;;;;;5033090;28;20044;-62
2022/10/17 03:41:59;;;;;;;8.57;1.45;;;;;;;;;;5032765;28;20476;-62
2022/10/17 03:44:25;;;;;;;3.42;0.85;;;;;;;;;;5032921;28;20489;-62
2022/10/17 03:46:51;;;;;;;8.20;1.27;;;;;;;;;;5032213;28;20038;-62
2022/10/17 03:49:17;;;;;;;5.97;1.30;;;;;;;;;;5030834;28;20017;-62
2022/10/17 03:51:43;;;;;;;5.03;1.13;;;;;;;;;;5032346;28;20477;-62
2022/10/17 03:54:13;;;;;;;5.57;1.85;;;;;;;;;;5032899;28;20508;-62
2022/10/17 03:56:39;;;;;;;5.75;1.20;;;;;;;;;;5031798;28;20033;-62
2022/10/17 03:59:14;;;;;;;5.07;1.70;;;;;;;;;;5032674;28;20105;-62
2022/10/17 04:01:42;;;;;;;4.07;1.20;;;;;;;;;;5029170;28;20030;-62
2022/10/17 04:04:09;;;;;;;8.23;1.17;;;;;;;;;;5021811;28;20030;-62
2022/10/17 04:06:37;;;;;;;10.90;1.42;;;;;;;;;;5028835;28;20379;-62
2022/10/17 04:09:04;;;;;;;5.78;1.15;;;;;;;;;;5031716;28;20026;-62
2022/10/17 04:11:38;;;;;;;6.38;1.23;;;;;;;;;;5031090;28;20052;-62
2022/10/17 04:14:04;;;;;;;7.47;1.35;;;;;;;;;;5031852;28;20040;-62
2022/10/17 04:16:31;;;;;;;5.13;1.25;;;;;;;;;;5032309;28;20064;-62
2022/10/17 04:19:01;;;;;;;5.00;0.75;;;;;;;;;;5030541;28;20045;-62
2022/10/17 04:21:31;;;;;;;7.68;1.40;;;;;;;;;;5036558;28;20056;-62
2022/10/17 04:24:02;;;;;;;6.57;1.27;;;;;;;;;;5040056;28;20046;-62
2022/10/17 04:26:43;;;;;;;7.43;1.45;;;;;;;;;;5031980;28;20037;-62
2022/10/17 04:29:09;;;;;;;9.95;1.77;;;;;;;;;;5032133;28;20037;-62
2022/10/17 04:31:35;;;;;;;5.78;0.90;;;;;;;;;;5031353;28;20024;-62
2022/10/17 04:34:13;;;;;;;11.93;1.33;;;;;;;;;;5032590;28;20517;-62
2022/10/17 04:36:39;;;;;;;6.32;1.48;;;;;;;;;;5033269;28;20034;-62
2022/10/17 04:39:06;;;;;;;6.75;1.30;;;;;;;;;;5027421;28;20037;-62
2022/10/17 04:41:35;;;;;;;15.65;1.50;;;;;;;;;;5032886;28;20033;-62
2022/10/17 04:44:01;;;;;;;5.28;1.45;;;;;;;;;;5032911;28;20103;-62
2022/10/17 04:46:30;;;;;;;6.28;0.90;;;;;;;;;;5033369;28;20037;-62
2022/10/17 04:48:56;;;;;;;7.18;1.20;;;;;;;;;;5031648;28;20029;-62
2022/10/17 04:51:22;;;;;;;9.27;1.10;;;;;;;;;;5029073;28;20037;-62
2022/10/17 04:54:09;;;;;;;9.95;1.00;;;;;;;;;;5030050;28;20022;-62
2022/10/17 04:56:38;;;;;;;5.60;1.23;;;;;;;;;;5030172;28;20480;-61
2022/10/17 04:59:04;;;;;;;2.80;1.10;;;;;;;;;;5032875;28;20105;-62
2022/10/17 05:01:31;;;;;;;10.02;1.70;;;;;;;;;;5030703;28;20030;-62
2022/10/17 05:03:57;;;;;;;3.53;1.00;;;;;;;;;;5031793;28;20033;-62
2022/10/17 05:06:24;;;;;;;7.28;1.10;;;;;;;;;;5031025;28;20111;-62
2022/10/17 05:09:13;;;;;;;6.30;1.08;;;;;;;;;;5029512;28;20402;-62
2022/10/17 05:11:42;;;;;;;9.38;1.00;;;;;;;;;;5030309;28;20081;-62
2022/10/17 05:14:09;;;;;;;8.88;1.20;;;;;;;;;;5018892;28;20324;-62
2022/10/17 05:16:35;;;;;;;7.63;1.38;;;;;;;;;;5031622;28;20148;-62
2022/10/17 05:19:01;;;;;;;6.40;1.15;;;;;;;;;;5029663;28;20021;-62
2022/10/17 05:21:33;;;;;;;5.80;1.13;;;;;;;;;;5026065;28;20029;-62
2022/10/17 05:23:59;;;;;;;4.93;1.20;;;;;;;;;;5030298;28;20033;-62
2022/10/17 05:26:26;;;;;;;8.10;1.42;;;;;;;;;;5029068;28;20025;-62
2022/10/17 05:28:53;;;;;;;12.73;1.67;;;;;;;;;;5030638;28;20026;-62
2022/10/17 05:31:22;;;;;;;7.43;1.33;;;;;;;;;;5031767;28;20025;-62
2022/10/17 05:33:48;;;;;;;5.68;1.05;;;;;;;;;;5028886;28;21648;-61
2022/10/17 05:36:14;;;;;;;7.68;1.40;;;;;;;;;;5034286;28;20039;-62
2022/10/17 05:38:41;;;;;;;12.20;1.50;;;;;;;;;;5030195;28;20528;-62
2022/10/17 05:41:09;;;;;;;7.97;1.25;;;;;;;;;;5032314;28;20018;-62
2022/10/17 05:43:35;;;;;;;13.32;2.25;;;;;;;;;;5041857;28;20046;-62
2022/10/17 05:46:05;;;;;;;6.20;1.80;;;;;;;;;;5026366;28;20037;-62
2022/10/17 05:48:32;;;;;;;18.65;5.03;;;;;;;;;;5028573;28;20080;-62
2022/10/17 05:51:00;;;;;;;10.07;2.22;;;;;;;;;;5029007;28;20033;-62
2022/10/17 05:53:29;;;;;;;9.25;1.92;;;;;;;;;;5044735;28;20086;-62
2022/10/17 05:56:00;;;;;;;11.05;1.67;;;;;;;;;;5022526;28;20022;-62
2022/10/17 05:58:26;;;;;;;10.77;2.70;;;;;;;;;;5032199;28;20520;-62
2022/10/17 06:00:59;;;;;;;14.90;2.08;;;;;;;;;;5041310;28;20485;-62
2022/10/17 06:03:26;;;;;;;9.32;1.65;;;;;;;;;;5027199;28;20041;-62
2022/10/17 06:05:53;;;;;;;7.68;1.70;;;;;;;;;;5030994;28;20029;-61
2022/10/17 06:08:20;;;;;;;14.05;1.50;;;;;;;;;;5036883;28;20025;-62
2022/10/17 06:10:49;;;;;;;6.47;1.38;;;;;;;;;;5030733;28;20038;-62
2022/10/17 06:13:16;;;;;;;6.32;1.40;;;;;;;;;;5033989;28;20052;-62
2022/10/17 06:15:44;;;;;;;18.92;1.73;;;;;;;;;;5035636;28;20029;-62
2022/10/17 06:18:11;;;;;;;8.43;1.50;;;;;;;;;;5038049;28;20362;-62
2022/10/17 06:20:38;;;;;;;7.60;1.77;;;;;;;;;;5032815;28;20037;-62
2022/10/17 06:23:05;;;;;;;3.13;1.48;;;;;;;;;;5042603;28;20037;-62
2022/10/17 06:25:58;;;;;;;6.35;1.40;;;;;;;;;;5040899;28;20128;-62
2022/10/17 06:28:24;;;;;;;5.28;1.50;;;;;;;;;;5027043;28;20025;-62
2022/10/17 06:30:51;;;;;;;9.82;2.03;;;;;;;;;;5034762;28;20173;-61
2022/10/17 06:33:19;;;;;;;6.28;1.80;;;;;;;;;;5032198;28;20379;-65
2022/10/17 06:35:50;;;;;;;8.43;1.85;;;;;;;;;;5032573;28;20025;-62
2022/10/17 06:38:17;;;;;;;11.02;2.42;;;;;;;;;;5031818;28;20505;-62
2022/10/17 06:40:43;;;;;;;14.60;2.45;;;;;;;;;;5033169;28;20044;-62
2022/10/17 06:43:09;;;;;;;5.82;1.60;;;;;;;;;;5031285;28;20041;-62
2022/10/17 06:45:55;;;;;;;14.02;2.20;;;;;;;;;;5026843;28;20056;-62
2022/10/17 06:48:35;;;;;;;11.70;2.03;;;;;;;;;;5014378;28;20044;-62
2022/10/17 06:51:27;;;;;;;8.15;2.00;;;;;;;;;;5014340;28;20031;-62
2022/10/17 06:53:56;;;;;;;5.75;1.98;;;;;;;;;;5014599;28;20397;-62
2022/10/17 06:56:41;;;;;;;6.75;2.10;;;;;;;;;;5015899;28;20032;-62
2022/10/17 06:59:18;;;;;;;9.25;2.40;;;;;;;;;;5015396;28;20040;-61
2022/10/17 07:01:52;;;;;;;7.97;2.38;;;;;;;;;;5014171;28;20029;-61
2022/10/17 07:04:18;;;;;;;9.40;2.53;;;;;;;;;;5026977;28;20034;-62
2022/10/17 07:06:44;;;;;;;9.27;2.20;;;;;;;;;;5035296;28;20025;-61
2022/10/17 07:09:16;;;;;;;9.38;2.78;;;;;;;;;;5033948;28;20087;-61
2022/10/17 07:11:43;;;;;;;13.07;2.00;;;;;;;;;;5033662;28;20099;-62
2022/10/17 07:14:09;;;;;;;8.75;2.13;;;;;;;;;;5035122;28;20044;-61
2022/10/17 07:16:35;;;;;;;7.43;2.20;;;;;;;;;;5033662;28;20041;-61
2022/10/17 07:19:10;;;;;;;13.55;1.77;;;;;;;;;;5033630;28;20397;-61
2022/10/17 07:21:38;;;;;;;6.40;2.13;;;;;;;;;;5032472;28;20454;-61
2022/10/17 07:24:06;;;;;;;9.50;2.13;;;;;;;;;;5033820;28;20128;-61
2022/10/17 07:26:32;;;;;;;9.00;2.40;;;;;;;;;;5033546;28;20096;-61
2022/10/17 07:29:00;;;;;;;13.65;2.10;;;;;;;;;;5033798;28;20049;-61
2022/10/17 07:31:34;;;;;;;7.78;1.70;;;;;;;;;;5033636;28;20497;-61
2022/10/17 07:34:00;;;;;;;5.93;1.83;;;;;;;;;;5033339;28;20032;-61
2022/10/17 07:36:27;;;;;;;12.82;2.10;;;;;;;;;;5033288;28;20025;-61
2022/10/17 07:38:54;;;;;;;7.97;1.73;;;;;;;;;;5033185;28;20410;-61
2022/10/17 07:41:21;;;;;;;12.30;1.70;;;;;;;;;;5033084;28;20104;-61
2022/10/17 07:43:48;;;;;;;13.57;2.40;;;;;;;;;;5032953;28;20021;-61
2022/10/17 07:46:17;;;;;;;14.40;2.65;;;;;;;;;;5034037;28;20092;-61
2022/10/17 07:48:44;;;;;;;15.95;2.15;;;;;;;;;;5032814;28;20124;-61
2022/10/17 07:51:11;;;;;;;15.30;2.97;;;;;;;;;;5032903;28;20044;-61
2022/10/17 07:53:38;;;;;;;13.85;2.75;;;;;;;;;;5034110;28;20056;-61
2022/10/17 07:56:05;;;;;;;16.52;2.63;;;;;;;;;;5034170;28;20034;-61
2022/10/17 07:58:31;;;;;;;14.85;2.65;;;;;;;;;;5033631;28;20033;-61
2022/10/17 08:01:05;;;;;;;12.00;2.22;;;;;;;;;;5034224;28;20033;-61
2022/10/17 08:03:31;;;;;;;17.15;2.63;;;;;;;;;;5033698;28;20036;-61
2022/10/17 08:05:58;;;;;;;12.60;2.10;;;;;;;;;;5034203;28;20035;-61
2022/10/17 08:08:24;;;;;;;24.42;3.72;;;;;;;;;;5033536;28;20041;-62
2022/10/17 08:10:50;;;;;;;10.63;2.53;;;;;;;;;;5034177;28;20041;-62
2022/10/17 08:13:16;;;;;;;9.00;2.55;;;;;;;;;;5033814;28;20029;-61
2022/10/17 08:15:42;;;;;;;16.35;4.05;;;;;;;;;;5033791;28;20042;-62
2022/10/17 08:18:08;;;;;;;12.90;4.80;;;;;;;;;;5033663;28;20393;-61
2022/10/17 08:20:34;;;;;;;12.02;5.10;;;;;;;;;;5033488;28;20029;-61
2022/10/17 08:23:00;;;;;;;16.83;4.90;;;;;;;;;;5033802;28;20032;-61
2022/10/17 08:25:26;;;;;;;13.63;4.53;;;;;;;;;;5033558;28;20029;-61
2022/10/17 08:27:53;;;;;;;11.88;4.93;;;;;;;;;;5033619;28;20030;-62
2022/10/17 08:30:19;;;;;;;16.15;4.15;;;;;;;;;;5033534;28;20102;-62
2022/10/17 08:32:45;;;;;;;11.10;3.03;;;;;;;;;;5032503;28;20493;-61
2022/10/17 08:35:11;;;;;;;10.73;3.25;;;;;;;;;;5033548;28;20135;-61
2022/10/17 08:37:37;;;;;;;13.52;3.33;;;;;;;;;;5033235;28;20040;-62
2022/10/17 08:40:04;;;;;;;12.68;2.88;;;;;;;;;;5033565;28;20029;-61
2022/10/17 08:42:45;;;;;;;16.90;2.63;;;;;;;;;;5032822;28;20146;-62
2022/10/17 08:45:26;;;;;;;11.85;1.90;;;;;;;;;;5033022;28;20029;-61
2022/10/17 08:47:57;;;;;;;9.13;2.08;;;;;;;;;;5033032;28;20038;-62
2022/10/17 08:50:42;;;;;;;14.07;1.98;;;;;;;;;;5032980;28;20033;-61
2022/10/17 08:53:26;;;;;;;12.48;2.35;;;;;;;;;;5013786;28;20033;-61
2022/10/17 08:55:53;;;;;;;16.88;1.92;;;;;;;;;;5013702;28;20117;-62
2022/10/17 08:58:28;;;;;;;12.40;1.83;;;;;;;;;;5013674;28;20048;-62
2022/10/17 09:01:07;;;;;;;12.70;2.78;;;;;;;;;;5013218;28;20525;-62
2022/10/17 09:03:48;;;;;;;13.93;2.30;;;;;;;;;;5013483;28;20601;-62
2022/10/17 09:06:49;;;;;;;18.95;2.50;;;;;;;;;;5013614;28;20037;-62
2022/10/17 09:09:21;;;;;;;11.25;1.98;;;;;;;;;;5011144;28;20084;-62
2022/10/17 09:11:47;;;;;;;12.63;2.20;;;;;;;;;;5011023;28;20049;-62
2022/10/17 09:14:17;;;;;;;17.55;3.38;;;;;;;;;;5011016;28;20022;-62
2022/10/17 09:16:43;;;;;;;10.18;2.22;;;;;;;;;;5011052;28;20088;-62
2022/10/17 09:19:15;;;;;;;7.57;1.90;;;;;;;;;;5011172;28;20037;-62
2022/10/17 09:21:48;;;;;;;13.68;1.90;;;;;;;;;;5010855;28;20136;-62
2022/10/17 09:24:36;;;;;;;15.20;1.92;;;;;;;;;;5011244;28;20565;-62
2022/10/17 09:27:02;;;;;;;14.70;1.98;;;;;;;;;;5010998;28;20048;-62
2022/10/17 09:29:29;;;;;;;14.55;2.13;;;;;;;;;;5010543;28;20042;-61
2022/10/17 09:32:02;;;;;;;8.25;2.30;;;;;;;;;;5011058;28;20525;-62
2022/10/17 09:34:29;;;;;;;13.73;2.88;;;;;;;;;;5010973;28;20031;-62
2022/10/17 09:36:57;;;;;;;8.45;1.90;;;;;;;;;;5010971;28;20037;-62
2022/10/17 09:39:25;;;;;;;16.98;2.03;;;;;;;;;;5010972;28;20064;-61
2022/10/17 09:41:56;;;;;;;15.07;2.35;;;;;;;;;;5010833;28;20117;-62
2022/10/17 09:44:29;;;;;;;14.50;2.85;;;;;;;;;;5012037;28;20128;-61
2022/10/17 09:47:01;;;;;;;21.85;3.97;;;;;;;;;;5011993;28;20362;-62
2022/10/17 09:49:41;;;;;;;11.77;1.88;;;;;;;;;;5031492;28;20055;-62
2022/10/17 09:52:14;;;;;;;22.00;1.85;;;;;;;;;;5032979;28;20065;-62
2022/10/17 09:54:47;;;;;;;11.93;2.08;;;;;;;;;;5032343;28;20036;-62
2022/10/17 09:57:15;;;;;;;9.55;2.20;;;;;;;;;;5032875;28;20536;-62
2022/10/17 09:59:46;;;;;;;13.75;2.03;;;;;;;;;;5032198;28;20413;-62
2022/10/17 10:02:15;;;;;;;15.55;2.08;;;;;;;;;;5032595;28;20398;-62
2022/10/17 10:04:52;;;;;;;9.60;2.20;;;;;;;;;;5032505;28;20033;-61
2022/10/17 10:07:19;;;;;;;12.63;2.17;;;;;;;;;;5032517;28;20026;-62
2022/10/17 10:09:46;;;;;;;16.70;2.33;;;;;;;;;;5032478;28;20041;-61
2022/10/17 10:12:20;;;;;;;13.70;2.25;;;;;;;;;;5032524;28;21090;-62
2022/10/17 10:14:46;;;;;;;20.63;4.05;;;;;;;;;;5032259;28;20083;-62
2022/10/17 10:17:28;;;;;;;16.42;2.38;;;;;;;;;;5032593;28;20029;-62
2022/10/17 10:19:54;;;;;;;19.00;2.38;;;;;;;;;;5032384;28;20033;-62
2022/10/17 10:22:24;;;;;;;12.45;2.75;;;;;;;;;;5032007;28;20024;-62
2022/10/17 10:25:08;;;;;;;18.35;3.08;;;;;;;;;;5032073;28;20053;-62
2022/10/17 10:27:35;;;;;;;24.27;3.17;;;;;;;;;;5031436;28;20132;-62
2022/10/17 10:30:01;;;;;;;14.40;2.40;;;;;;;;;;5032288;28;20481;-62
2022/10/17 10:32:30;;;;;;;18.63;2.47;;;;;;;;;;5028925;28;20041;-61
2022/10/17 10:34:56;;;;;;;12.07;3.58;;;;;;;;;;5025955;28;20478;-62
2022/10/17 10:37:26;;;;;;;22.02;2.20;;;;;;;;;;5024815;28;20108;-62
2022/10/17 10:39:54;;;;;;;12.18;2.08;;;;;;;;;;5031240;28;20022;-62
2022/10/17 10:42:22;;;;;;;15.55;2.75;;;;;;;;;;5030418;28;20113;-62
2022/10/17 10:44:49;;;;;;;10.45;2.28;;;;;;;;;;5023203;28;20036;-62
2022/10/17 10:47:16;;;;;;;12.32;2.15;;;;;;;;;;5029749;28;20036;-62
2022/10/17 10:49:43;;;;;;;9.70;2.00;;;;;;;;;;5027798;28;20072;-62
2022/10/17 10:52:13;;;;;;;17.65;2.47;;;;;;;;;;5029582;28;20029;-62
2022/10/17 10:54:43;;;;;;;14.38;2.60;;;;;;;;;;5027838;28;20038;-62
2022/10/17 10:57:12;;;;;;;12.73;2.42;;;;;;;;;;5032820;28;20041;-62
2022/10/17 10:59:40;;;;;;;8.57;1.65;;;;;;;;;;5032018;28;20128;-62
2022/10/17 11:02:12;;;;;;;19.48;1.95;;;;;;;;;;5033605;28;20078;-61
2022/10/17 11:04:47;;;;;;;18.77;2.40;;;;;;;;;;5032958;28;20041;-61
2022/10/17 11:07:18;;;;;;;13.68;1.73;;;;;;;;;;5033700;28;20025;-61
2022/10/17 11:09:44;;;;;;;13.85;2.17;;;;;;;;;;5033418;28;20034;-62
2022/10/17 11:12:18;;;;;;;17.25;2.47;;;;;;;;;;5031850;28;20065;-61
2022/10/17 11:15:01;;;;;;;20.20;2.55;;;;;;;;;;5032384;28;20025;-61
2022/10/17 11:17:50;;;;;;;25.75;3.47;;;;;;;;;;5032214;28;20033;-61
2022/10/17 11:20:21;;;;;;;15.98;3.03;;;;;;;;;;5030379;28;20049;-61
2022/10/17 11:22:49;;;;;;;20.52;3.28;;;;;;;;;;5033028;28;20047;-61
2022/10/17 11:25:15;;;;;;;18.05;2.75;;;;;;;;;;5033915;28;20051;-61
2022/10/17 11:27:41;;;;;;;12.57;2.60;;;;;;;;;;5034068;28;20124;-61
2022/10/17 11:30:11;;;;;;;16.13;2.55;;;;;;;;;;5029998;28;20014;-61
2022/10/17 11:32:43;;;;;;;11.38;1.80;;;;;;;;;;5033997;28;20099;-61
2022/10/17 11:35:10;;;;;;;13.13;2.78;;;;;;;;;;5034199;28;20386;-61
2022/10/17 11:37:39;;;;;;;12.80;2.78;;;;;;;;;;5032586;28;20436;-61
2022/10/17 11:40:07;;;;;;;11.93;1.70;;;;;;;;;;5031994;28;20061;-61
2022/10/17 11:42:37;;;;;;;12.60;1.85;;;;;;;;;;5032972;28;20347;-61
2022/10/17 11:45:15;;;;;;;18.52;2.90;;;;;;;;;;5032837;28;20084;-61
2022/10/17 11:47:46;;;;;;;17.77;1.90;;;;;;;;;;5030905;28;20040;-61
2022/10/17 11:50:27;;;;;;;12.43;1.80;;;;;;;;;;5025389;28;20018;-61
2022/10/17 11:52:58;;;;;;;13.23;2.20;;;;;;;;;;5026797;28;20041;-61
2022/10/17 11:55:26;;;;;;;14.43;2.03;;;;;;;;;;5028568;28;20026;-62
2022/10/17 11:58:11;;;;;;;10.15;2.08;;;;;;;;;;5034490;28;20040;-62
2022/10/17 12:00:37;;;;;;;10.02;1.70;;;;;;;;;;5034572;28;20033;-61
2022/10/17 12:03:06;;;;;;;11.07;1.85;;;;;;;;;;5034210;28;20052;-62
2022/10/17 12:05:36;;;;;;;15.48;2.28;;;;;;;;;;5034547;28;20037;-62
2022/10/17 12:08:02;;;;;;;8.15;2.45;;;;;;;;;;5033201;28;20409;-61
2022/10/17 12:10:33;;;;;;;23.88;2.83;;;;;;;;;;5034165;28;20045;-62
2022/10/17 12:13:18;;;;;;;10.45;2.60;;;;;;;;;;5034200;28;20032;-62
2022/10/17 12:15:44;;;;;;;14.10;2.58;;;;;;;;;;5034182;28;20025;-62
2022/10/17 12:18:15;;;;;;;13.98;2.38;;;;;;;;;;5034102;28;20037;-61
2022/10/17 12:20:41;;;;;;;12.15;1.75;;;;;;;;;;5034178;28;20041;-61
2022/10/17 12:23:10;;;;;;;16.85;2.35;;;;;;;;;;5033688;28;20359;-62
2022/10/17 12:25:47;;;;;;;15.45;1.63;;;;;;;;;;5033916;28;20061;-61
2022/10/17 12:28:27;;;;;;;7.78;1.50;;;;;;;;;;5033645;28;20029;-61
2022/10/17 12:30:57;;;;;;;16.98;1.73;;;;;;;;;;5034041;28;20033;-62
2022/10/17 12:33:30;;;;;;;7.47;1.73;;;;;;;;;;5033802;28;20453;-61
2022/10/17 12:35:56;;;;;;;;;;;;;;;;;;5034044;28;20182;-62
2022/10/17 12:38:24;;;;;;;17.42;2.50;;;;;;;;;;5033529;28;19909;-62
2022/10/17 12:40:51;;;;;;;17.00;3.20;;;;;;;;;;5033715;28;20033;-62
2022/10/17 12:43:17;;;;;;;9.00;1.55;;;;;;;;;;5033524;28;20053;-61
2022/10/17 12:46:03;;;;;;;11.45;2.10;;;;;;;;;;5033800;28;20025;-61
2022/10/17 12:48:50;;;;;;;19.45;1.83;;;;;;;;;;5033521;28;20505;-62
2022/10/17 12:51:16;;;;;;;6.53;1.98;;;;;;;;;;5032837;28;20045;-61
2022/10/17 12:53:42;;;;;;;14.57;1.95;;;;;;;;;;5033258;28;20022;-61
2022/10/17 12:56:08;;;;;;;8.23;1.42;;;;;;;;;;5033110;28;20030;-61
2022/10/17 12:58:35;;;;;;;13.93;2.05;;;;;;;;;;5033626;28;20391;-61
2022/10/17 13:01:01;;;;;;;9.27;1.70;;;;;;;;;;5033220;28;20036;-61
2022/10/17 13:03:30;;;;;;;8.93;1.65;;;;;;;;;;5033331;28;20075;-61
2022/10/17 13:05:58;;;;;;;13.32;2.42;;;;;;;;;;5032881;28;20729;-61
2022/10/17 13:08:30;;;;;;;10.18;1.45;;;;;;;;;;5033198;28;20428;-61
2022/10/17 13:10:57;;;;;;;13.55;2.00;;;;;;;;;;5032933;28;20045;-61
2022/10/17 13:13:23;;;;;;;8.85;1.33;;;;;;;;;;5033169;28;20033;-61
2022/10/17 13:15:50;;;;;;;14.82;2.45;;;;;;;;;;5033147;28;20410;-61
2022/10/17 13:18:22;;;;;;;11.57;1.90;;;;;;;;;;5032836;28;20040;-61
2022/10/17 13:20:56;;;;;;;11.13;1.90;;;;;;;;;;5032336;28;20405;-61
2022/10/17 13:23:22;;;;;;;11.50;2.25;;;;;;;;;;5032846;28;20379;-61
2022/10/17 13:26:01;;;;;;;13.20;1.73;;;;;;;;;;5033064;28;20033;-61
2022/10/17 13:28:27;;;;;;;11.15;1.67;;;;;;;;;;5032960;28;20083;-62
2022/10/17 13:30:54;;;;;;;11.10;2.05;;;;;;;;;;5032730;28;20022;-61
2022/10/17 13:33:32;;;;;;;10.75;1.70;;;;;;;;;;5032649;28;20030;-61
2022/10/17 13:35:59;;;;;;;13.23;2.05;;;;;;;;;;5032682;28;20028;-61
2022/10/17 13:38:31;;;;;;;10.38;1.65;;;;;;;;;;5032873;28;20029;-61
2022/10/17 13:40:57;;;;;;;15.57;2.17;;;;;;;;;;5032633;28;20116;-61
2022/10/17 13:43:23;;;;;;;14.45;2.22;;;;;;;;;;5032819;28;20033;-61
2022/10/17 13:45:51;;;;;;;8.98;1.75;;;;;;;;;;5032970;28;20079;-63
2022/10/17 13:48:19;;;;;;;17.77;2.25;;;;;;;;;;5032585;28;20136;-63
2022/10/17 13:50:47;;;;;;;6.75;1.50;;;;;;;;;;5032455;28;20041;-63
2022/10/17 13:53:18;;;;;;;14.70;1.92;;;;;;;;;;5032437;28;20067;-63
2022/10/17 13:55:55;;;;;;;7.22;2.00;;;;;;;;;;5032561;28;20515;-63
2022/10/17 13:58:22;;;;;;;12.63;1.83;;;;;;;;;;5032426;28;20117;-63
2022/10/17 14:00:51;;;;;;;12.95;3.38;;;;;;;;;;5032714;28;20056;-63
2022/10/17 14:03:18;;;;;;;8.82;1.85;;;;;;;;;;5032195;28;20120;-63
2022/10/17 14:06:02;;;;;;;11.43;1.70;;;;;;;;;;5032352;28;20036;-63
2022/10/17 14:08:28;;;;;;;7.50;1.50;;;;;;;;;;5032289;28;20033;-63
2022/10/17 14:10:55;;;;;;;11.77;2.03;;;;;;;;;;5032570;28;20087;-63
2022/10/17 14:13:25;;;;;;;10.55;2.13;;;;;;;;;;5032302;28;20036;-63
2022/10/17 14:15:53;;;;;;;15.55;2.17;;;;;;;;;;5032394;28;20163;-63
2022/10/17 14:18:24;;;;;;;12.52;2.05;;;;;;;;;;5032393;28;20033;-63
2022/10/17 14:20:51;;;;;;;8.00;1.83;;;;;;;;;;5032632;28;20035;-63
2022/10/17 14:23:31;;;;;;;20.10;2.88;;;;;;;;;;5032175;28;20036;-63
2022/10/17 14:26:08;;;;;;;11.20;1.90;;;;;;;;;;5032270;28;20112;-63
2022/10/17 14:28:34;;;;;;;16.83;2.80;;;;;;;;;;5030106;28;20401;-63
2022/10/17 14:31:12;;;;;;;9.57;1.63;;;;;;;;;;5032808;28;20377;-63
2022/10/17 14:33:43;;;;;;;16.95;2.30;;;;;;;;;;5035879;28;20068;-63
2022/10/17 14:36:09;;;;;;;10.32;1.90;;;;;;;;;;5036004;28;20056;-63
2022/10/17 14:38:35;;;;;;;13.48;2.08;;;;;;;;;;5035940;28;20029;-63
2022/10/17 14:41:05;;;;;;;21.23;1.85;;;;;;;;;;5036004;28;20111;-63
2022/10/17 14:43:32;;;;;;;14.02;2.08;;;;;;;;;;5035901;28;20025;-63
2022/10/17 14:45:59;;;;;;;19.90;3.30;;;;;;;;;;5036106;28;20386;-63
2022/10/17 14:48:26;;;;;;;9.88;2.15;;;;;;;;;;5035098;28;20039;-63
2022/10/17 14:51:15;;;;;;;18.35;2.42;;;;;;;;;;5036084;28;20025;-63
2022/10/17 14:53:42;;;;;;;15.05;1.83;;;;;;;;;;5035384;28;20045;-63